createdAt,value
2023-01-19T00:22:12.373Z,11.32
2023-01-19T00:25:44.491Z,12.60
2023-01-19T00:29:16.326Z,11.75
2023-01-19T00:32:48.748Z,10.07
2023-01-19T00:36:20.663Z,10.73
2023-01-19T00:39:53.260Z,10.30
2023-01-19T00:43:25.416Z,8.90
2023-01-19T00:46:57.685Z,8.90
2023-01-19T00:50:31.810Z,8.73
2023-01-19T00:54:05.033Z,9.38
2023-01-19T00:57:40.189Z,9.27
2023-01-19T01:01:12.536Z,8.43
2023-01-19T01:04:44.408Z,9.45
2023-01-19T01:08:16.589Z,9.80
2023-01-19T01:11:51.236Z,8.10
2023-01-19T01:15:23.572Z,8.20
2023-01-19T01:18:55.461Z,8.18
2023-01-19T01:22:27.555Z,8.33
2023-01-19T01:26:00.140Z,7.65
2023-01-19T01:29:35.459Z,7.70
2023-01-19T01:33:13.320Z,7.45
2023-01-19T01:36:45.699Z,6.70
2023-01-19T01:40:18.687Z,7.80
2023-01-19T01:43:58.798Z,7.05
2023-01-19T01:47:45.720Z,7.03
2023-01-19T01:51:31.261Z,8.40
2023-01-19T01:55:08.628Z,8.00
2023-01-19T01:58:41.257Z,7.73
2023-01-19T02:02:38.472Z,7.68
2023-01-19T02:06:13.256Z,8.05
2023-01-19T02:10:03.684Z,8.13
2023-01-19T02:13:43.877Z,7.47
2023-01-19T02:17:16.247Z,7.65
2023-01-19T02:21:08.528Z,7.60
2023-01-19T02:24:40.912Z,7.57
2023-01-19T02:28:15.180Z,9.45
2023-01-19T02:31:47.823Z,8.68
2023-01-19T02:35:20.767Z,9.03
2023-01-19T02:38:56.258Z,8.20
2023-01-19T02:42:33.451Z,8.65
2023-01-19T02:46:05.328Z,7.90
2023-01-19T02:49:37.742Z,8.17
2023-01-19T02:53:29.687Z,7.85
2023-01-19T02:57:36.289Z,7.97
2023-01-19T03:01:54.111Z,7.10
2023-01-19T03:05:46.166Z,8.35
2023-01-19T03:09:41.698Z,8.07
2023-01-19T03:13:38.891Z,7.80
2023-01-19T03:17:13.329Z,7.20
2023-01-19T03:20:45.751Z,7.57
2023-01-19T03:24:21.514Z,8.05
2023-01-19T03:27:56.972Z,6.93
2023-01-19T03:31:32.081Z,8.32
2023-01-19T03:35:11.182Z,7.32
2023-01-19T03:38:44.989Z,7.70
2023-01-19T03:42:18.224Z,7.25
2023-01-19T03:45:51.166Z,8.25
2023-01-19T03:49:23.034Z,7.27
2023-01-19T03:53:09.713Z,7.93
2023-01-19T03:56:44.775Z,7.13
2023-01-19T04:00:17.230Z,8.32
2023-01-19T04:03:50.764Z,7.87
2023-01-19T04:07:22.921Z,7.55
2023-01-19T04:10:57.526Z,8.55
2023-01-19T04:14:29.743Z,9.13
2023-01-19T04:18:01.769Z,9.05
2023-01-19T04:21:33.988Z,9.20
2023-01-19T04:25:07.045Z,8.37
2023-01-19T04:28:39.301Z,8.63
2023-01-19T04:32:13.239Z,8.52
2023-01-19T04:35:46.789Z,8.25
2023-01-19T04:39:18.702Z,8.73
2023-01-19T04:42:51.327Z,9.23
2023-01-19T04:46:23.158Z,9.13
2023-01-19T04:49:55.323Z,8.00
2023-01-19T04:53:29.041Z,8.55
2023-01-19T04:57:03.453Z,9.40
2023-01-19T05:00:35.818Z,8.73
2023-01-19T05:04:08.536Z,8.68
2023-01-19T05:07:40.370Z,7.90
2023-01-19T05:11:12.440Z,9.13
2023-01-19T05:14:44.326Z,8.47
2023-01-19T05:18:16.482Z,10.43
2023-01-19T05:21:48.266Z,9.18
2023-01-19T05:25:20.845Z,9.57
2023-01-19T05:28:55.341Z,9.32
2023-01-19T05:32:27.866Z,9.13
2023-01-19T05:35:59.769Z,8.27
2023-01-19T05:39:32.355Z,8.73
2023-01-19T05:43:05.512Z,9.23
2023-01-19T05:46:42.914Z,7.97
2023-01-19T05:50:15.211Z,8.30
2023-01-19T05:53:47.349Z,7.25
2023-01-19T05:57:19.400Z,5.93
2023-01-19T06:00:51.666Z,6.30
2023-01-19T06:04:23.769Z,5.78
2023-01-19T06:07:57.282Z,5.88
2023-01-19T06:11:29.182Z,6.77
2023-01-19T06:15:01.911Z,6.53
2023-01-19T06:18:34.184Z,6.65
2023-01-19T06:22:06.503Z,6.80
2023-01-19T06:25:38.396Z,6.97
2023-01-19T06:29:14.768Z,5.38
2023-01-19T06:32:47.450Z,6.88
2023-01-19T06:36:19.513Z,7.50
2023-01-19T06:39:54.305Z,7.13
2023-01-19T06:43:26.995Z,7.00
2023-01-19T06:47:14.921Z,6.50
2023-01-19T06:50:48.890Z,8.30
2023-01-19T06:54:20.752Z,7.65
2023-01-19T06:57:58.731Z,8.93
2023-01-19T07:01:41.045Z,8.80
2023-01-19T07:05:40.854Z,8.30
2023-01-19T07:09:21.887Z,9.60
2023-01-19T07:13:00.251Z,8.87
2023-01-19T07:16:38.988Z,8.43
2023-01-19T07:20:44.219Z,9.15
2023-01-19T07:24:29.605Z,9.93
2023-01-19T07:28:06.772Z,8.80
2023-01-19T07:32:00.174Z,9.80
2023-01-19T07:35:33.649Z,9.93
2023-01-19T07:39:07.394Z,10.00
2023-01-19T07:42:39.652Z,11.27
2023-01-19T07:46:11.590Z,10.25
2023-01-19T07:49:43.788Z,8.60
2023-01-19T07:53:16.839Z,8.73
2023-01-19T07:56:49.319Z,7.10
2023-01-19T08:00:24.880Z,7.43
2023-01-19T08:04:19.529Z,7.88
2023-01-19T08:08:23.744Z,6.22
2023-01-19T08:11:58.648Z,6.43
2023-01-19T08:16:09.320Z,5.73
2023-01-19T08:19:44.709Z,7.68
2023-01-19T08:23:18.258Z,7.30
2023-01-19T08:26:50.737Z,5.90
2023-01-19T08:30:24.841Z,3.70
2023-01-19T08:33:58.481Z,4.15
2023-01-19T08:37:34.292Z,5.07
2023-01-19T08:41:06.862Z,4.22
2023-01-19T08:44:46.629Z,5.85
2023-01-19T08:48:23.595Z,5.68
2023-01-19T08:51:55.434Z,3.80
2023-01-19T08:55:28.429Z,8.85
2023-01-19T08:59:08.980Z,10.05
2023-01-19T09:02:42.188Z,8.07
2023-01-19T09:06:18.593Z,7.32
2023-01-19T09:09:50.940Z,7.68
2023-01-19T09:13:23.410Z,7.20
2023-01-19T09:16:56.481Z,7.05
2023-01-19T09:20:32.243Z,6.75
2023-01-19T09:24:04.624Z,3.90
2023-01-19T09:27:36.685Z,7.30
2023-01-19T09:31:09.243Z,4.80
2023-01-19T09:34:41.626Z,6.07
2023-01-19T09:38:15.293Z,5.20
2023-01-19T09:42:02.798Z,5.78
2023-01-19T09:45:36.967Z,6.15
2023-01-19T09:49:33.322Z,3.67
2023-01-19T09:53:14.348Z,7.65
2023-01-19T09:56:51.302Z,7.05
2023-01-19T10:00:28.040Z,6.88
2023-01-19T10:04:38.727Z,6.57
2023-01-19T10:08:41.135Z,4.68
2023-01-19T10:12:32.172Z,5.95
2023-01-19T10:16:13.216Z,6.43
2023-01-19T10:19:54.630Z,4.30
2023-01-19T10:23:38.315Z,6.30
2023-01-19T10:27:24.686Z,7.83
2023-01-19T10:31:00.435Z,6.95
2023-01-19T10:34:36.738Z,7.20
2023-01-19T10:38:14.175Z,8.55
2023-01-19T10:41:54.642Z,5.30
2023-01-19T10:45:31.624Z,7.75
2023-01-19T10:49:04.327Z,5.15
2023-01-19T10:52:39.878Z,5.97
2023-01-19T10:56:24.898Z,7.43
2023-01-19T10:59:58.089Z,7.45
2023-01-19T11:03:31.886Z,7.67
2023-01-19T11:07:18.719Z,7.22
2023-01-19T11:11:00.759Z,7.53
2023-01-19T11:14:32.932Z,6.28
2023-01-19T11:18:06.398Z,6.93
2023-01-19T11:21:38.833Z,5.53
2023-01-19T11:25:22.864Z,6.68
2023-01-19T11:28:58.452Z,6.53
2023-01-19T11:32:33.113Z,6.78
2023-01-19T11:36:15.934Z,6.15
2023-01-19T11:39:52.976Z,7.70
2023-01-19T11:43:47.462Z,7.30
2023-01-19T11:47:33.388Z,6.00
2023-01-19T11:51:14.133Z,7.43
2023-01-19T11:54:52.667Z,7.73
2023-01-19T11:58:26.387Z,8.30
2023-01-19T12:02:05.204Z,7.13
2023-01-19T12:05:42.230Z,8.33
2023-01-19T12:09:21.824Z,8.25
2023-01-19T12:12:55.134Z,6.78
2023-01-19T12:16:31.548Z,7.97
2023-01-19T12:20:18.503Z,9.25
2023-01-19T12:24:08.876Z,9.05
2023-01-19T12:27:43.416Z,9.77
2023-01-19T12:31:20.580Z,8.00
2023-01-19T12:34:52.872Z,8.40
2023-01-19T12:39:04.651Z,8.18
2023-01-19T12:42:36.914Z,7.67
2023-01-19T12:46:31.836Z,7.18
2023-01-19T12:50:07.755Z,7.90
2023-01-19T12:53:39.515Z,8.20
2023-01-19T12:57:41.913Z,8.32
2023-01-19T13:01:19.031Z,7.25
2023-01-19T13:05:28.513Z,7.47
2023-01-19T13:09:00.938Z,8.23
2023-01-19T13:12:33.213Z,7.03
2023-01-19T13:16:20.152Z,7.00
2023-01-19T13:20:29.653Z,7.60
2023-01-19T13:24:17.142Z,8.40
2023-01-19T13:27:49.990Z,8.90
2023-01-19T13:31:23.079Z,9.60
2023-01-19T13:35:02.073Z,9.57
2023-01-19T13:38:34.578Z,8.98
2023-01-19T13:42:14.835Z,7.40
2023-01-19T13:45:52.408Z,8.97
2023-01-19T13:49:36.315Z,9.82
2023-01-19T13:53:20.543Z,9.57
2023-01-19T13:56:52.536Z,9.87
2023-01-19T14:00:30.828Z,10.50
2023-01-19T14:04:02.766Z,10.35
2023-01-19T14:07:34.936Z,10.33
2023-01-19T14:11:13.443Z,11.18
2023-01-19T14:14:49.611Z,11.57
2023-01-19T14:18:24.594Z,11.80
2023-01-19T14:22:01.730Z,12.57
2023-01-19T14:25:36.051Z,13.18
2023-01-19T14:29:31.071Z,12.15
2023-01-19T14:33:03.910Z,12.83
2023-01-19T14:36:39.370Z,12.75
2023-01-19T14:40:12.738Z,13.88
2023-01-19T14:43:45.723Z,12.80
2023-01-19T14:47:39.210Z,13.65
2023-01-19T14:51:18.004Z,14.57
2023-01-19T14:54:50.631Z,14.40
2023-01-19T14:58:26.070Z,12.67
2023-01-19T15:01:59.764Z,15.88
2023-01-19T15:05:33.622Z,14.18
2023-01-19T15:09:05.569Z,13.27
2023-01-19T15:12:37.679Z,13.52
2023-01-19T15:16:09.900Z,17.73
2023-01-19T15:19:41.973Z,18.07
2023-01-19T15:23:13.971Z,14.90
2023-01-19T15:26:46.206Z,17.40
2023-01-19T15:30:24.033Z,16.98
2023-01-19T15:33:56.710Z,15.07
2023-01-19T15:37:28.588Z,14.98
2023-01-19T15:41:00.932Z,14.98
2023-01-19T15:44:32.742Z,13.77
2023-01-19T15:48:07.588Z,16.92
2023-01-19T15:51:39.438Z,20.13
2023-01-19T15:55:12.482Z,17.23
2023-01-19T15:58:45.050Z,17.83
2023-01-19T16:02:17.223Z,15.40
2023-01-19T16:05:49.244Z,16.45
2023-01-19T16:09:21.735Z,17.27
2023-01-19T16:12:54.151Z,13.95
2023-01-19T16:16:27.912Z,16.27
2023-01-19T16:20:00.133Z,16.23
2023-01-19T16:23:31.889Z,15.10
2023-01-19T16:27:04.085Z,15.02
2023-01-19T16:30:36.139Z,15.33
2023-01-19T16:34:09.001Z,15.25
2023-01-19T16:37:42.325Z,14.57
2023-01-19T16:41:14.361Z,15.95
2023-01-19T16:44:46.175Z,15.57
2023-01-19T16:48:18.474Z,18.05
2023-01-19T16:51:51.267Z,14.85
2023-01-19T16:55:23.508Z,15.57
2023-01-19T16:59:01.347Z,13.52
2023-01-19T17:02:33.617Z,7.85
2023-01-19T17:06:07.615Z,16.63
2023-01-19T17:09:39.774Z,17.27
2023-01-19T17:13:12.054Z,18.20
2023-01-19T17:16:44.441Z,15.70
2023-01-19T17:20:19.146Z,15.37
2023-01-19T17:23:53.708Z,16.80
2023-01-19T17:27:26.236Z,16.80
2023-01-19T17:31:05.835Z,16.73
2023-01-19T17:34:37.874Z,17.73
2023-01-19T17:38:12.636Z,18.73
2023-01-19T17:41:44.488Z,20.57
2023-01-19T17:45:16.881Z,19.45
2023-01-19T17:49:01.626Z,16.77
2023-01-19T17:52:36.697Z,17.17
2023-01-19T17:56:12.505Z,18.50
2023-01-19T17:59:49.122Z,17.13
2023-01-19T18:03:21.616Z,16.85
2023-01-19T18:06:53.652Z,16.93
2023-01-19T18:10:25.863Z,19.92
2023-01-19T18:13:58.434Z,19.58
2023-01-19T18:17:31.236Z,20.13
2023-01-19T18:21:05.851Z,21.27
2023-01-19T18:24:37.967Z,20.63
2023-01-19T18:28:10.028Z,22.10
2023-01-19T18:31:42.866Z,19.20
2023-01-19T18:35:16.542Z,22.27
2023-01-19T18:38:48.415Z,22.77
2023-01-19T18:42:20.444Z,20.77
2023-01-19T18:45:54.479Z,19.40
2023-01-19T18:49:26.668Z,17.02
2023-01-19T18:52:59.068Z,17.60
2023-01-19T18:56:30.934Z,17.55
2023-01-19T19:00:04.387Z,18.83
2023-01-19T19:03:36.117Z,17.83
2023-01-19T19:07:08.762Z,15.67
2023-01-19T19:10:42.279Z,16.95
2023-01-19T19:14:14.085Z,18.00
2023-01-19T19:17:46.688Z,14.67
2023-01-19T19:21:20.253Z,16.45
2023-01-19T19:24:52.336Z,13.18
2023-01-19T19:28:24.321Z,12.13
2023-01-19T19:31:56.977Z,12.23
2023-01-19T19:35:28.723Z,13.93
2023-01-19T19:39:00.995Z,16.65
2023-01-19T19:42:37.055Z,12.93
2023-01-19T19:46:12.353Z,13.63
2023-01-19T19:49:45.200Z,13.95
2023-01-19T19:53:17.435Z,13.13
2023-01-19T19:56:52.569Z,18.02
2023-01-19T20:00:25.025Z,12.07
2023-01-19T20:03:57.322Z,12.30
2023-01-19T20:07:29.896Z,11.90
2023-01-19T20:11:16.714Z,10.77
2023-01-19T20:14:49.033Z,13.52
2023-01-19T20:18:21.562Z,11.07
2023-01-19T20:21:53.544Z,12.88
2023-01-19T20:25:26.707Z,12.15
2023-01-19T20:29:02.903Z,14.47
2023-01-19T20:32:35.247Z,12.98
2023-01-19T20:36:07.604Z,13.70
2023-01-19T20:39:39.523Z,15.00
2023-01-19T20:43:11.958Z,14.68
2023-01-19T20:46:43.925Z,14.40
2023-01-19T20:50:16.448Z,14.80
2023-01-19T20:53:48.323Z,13.40
2023-01-19T20:57:20.387Z,15.50
2023-01-19T21:00:52.399Z,14.73
2023-01-19T21:04:24.940Z,17.87
2023-01-19T21:07:56.779Z,17.73
2023-01-19T21:11:29.422Z,16.60
2023-01-19T21:15:01.431Z,18.47
2023-01-19T21:18:34.375Z,17.75
2023-01-19T21:22:06.373Z,18.38
2023-01-19T21:25:39.678Z,17.65
2023-01-19T21:29:14.106Z,17.17
2023-01-19T21:32:46.284Z,17.73
2023-01-19T21:36:18.270Z,17.38
2023-01-19T21:39:50.615Z,16.60
2023-01-19T21:43:24.477Z,17.02
2023-01-19T21:46:56.805Z,16.10
2023-01-19T21:50:30.408Z,17.20
2023-01-19T21:54:03.949Z,18.85
2023-01-19T21:57:36.166Z,16.73
2023-01-19T22:01:15.442Z,15.77
2023-01-19T22:04:47.619Z,17.50
2023-01-19T22:08:19.860Z,15.40
2023-01-19T22:11:52.059Z,14.80
2023-01-19T22:15:23.834Z,14.97
2023-01-19T22:19:02.351Z,16.30
2023-01-19T22:22:34.640Z,14.68
2023-01-19T22:26:08.254Z,13.97
2023-01-19T22:29:40.252Z,14.57
2023-01-19T22:33:12.111Z,15.40
2023-01-19T22:36:44.487Z,14.50
2023-01-19T22:40:16.708Z,14.50
2023-01-19T22:43:50.294Z,14.00
2023-01-19T22:47:23.076Z,16.77
2023-01-19T22:50:58.244Z,13.73
2023-01-19T22:54:30.257Z,14.80
2023-01-19T22:58:02.274Z,15.50
2023-01-19T23:01:40.127Z,17.93
2023-01-19T23:05:12.710Z,16.50
2023-01-19T23:08:44.997Z,16.10
2023-01-19T23:12:17.444Z,14.77
2023-01-19T23:15:49.352Z,13.57
2023-01-19T23:19:22.119Z,13.77
2023-01-19T23:22:54.109Z,14.13
2023-01-19T23:26:27.195Z,14.03
2023-01-19T23:30:00.138Z,14.77
2023-01-19T23:33:32.105Z,15.77
2023-01-19T23:37:03.846Z,17.10
2023-01-19T23:40:36.012Z,15.63
2023-01-19T23:44:08.263Z,16.15
2023-01-19T23:47:43.361Z,14.40
2023-01-19T23:51:17.906Z,15.97
2023-01-19T23:54:50.943Z,15.73
2023-01-19T23:58:23.373Z,15.73
